Bienvenue sur la page dédiée à la station météo de Courtenay (Loiret)

Retrouvez également nos données météorologiques sur:

UK Metoffice

Weather Underground

AWEKAS

Citizen Weather Observer Program (CWOP)



Rapports METAR à proximité

   
LFOJ - Montargis
Mise à jour: 19-06-2018 21:30
Ciel dégagé  
Ciel dégagé  
   Vent: NE 7.4 km/h
Vent: NE 7.4 km/h
Température: 21°C
Point de rosée: 16°C
Humidité: 73%
Pression atmosphérique: 1023 hPa
Visibilité: Supérieur à 10 km
Nébulosité: Ciel dégagé
LFOJ 191930Z AUTO 04004KT CAVOK 21/16 Q1023 NOSIG
LFOJ - Orléans
Mise à jour: 19-06-2018 21:30
Ciel dégagé  
Ciel dégagé  
   Vent: NE 7.4 km/h
Vent: NE 7.4 km/h
Température: 21°C
Point de rosée: 16°C
Humidité: 73%
Pression atmosphérique: 1023 hPa
Visibilité: Supérieur à 10 km
Nébulosité: Ciel dégagé
LFOJ 191930Z AUTO 04004KT CAVOK 21/16 Q1023 NOSIG
LFQB - Sens
Mise à jour: 19-06-2018 21:30
  
  
   Vent: Nord 5.6 km/h
Vent: Nord 5.6 km/h
Température: 22°C
Point de rosée: 16°C
Humidité: 69%
Pression atmosphérique: 1024 hPa
Visibilité: Supérieur à 10 km
LFQB 191930Z AUTO 36003KT 9999 ////// 22/16 Q1024
LFQB - Auxerre
Mise à jour: 19-06-2018 21:30
  
  
   Vent: Nord 5.6 km/h
Vent: Nord 5.6 km/h
Température: 22°C
Point de rosée: 16°C
Humidité: 69%
Pression atmosphérique: 1024 hPa
Visibilité: Supérieur à 10 km
LFQB 191930Z AUTO 36003KT 9999 ////// 22/16 Q1024
LFPO - Paris
Mise à jour: 19-06-2018 21:30
Peu de nuages  
Peu de nuages  
   Vent: NE 11.1 km/h
Vent: NE 11.1 km/h
Température: 22°C
Point de rosée: 15°C
Humidité: 65%
Pression atmosphérique: 1024 hPa
Nuages: Peu de nuages
Visibilité: Supérieur à 10 km
Nébulosité: Peu de nuages 4200 ft
LFPO 191930Z 05006KT 9999 FEW042 22/15 Q1024 NOSIG
LFLX - Bourges
Mise à jour: 19-06-2018 21:30
Ciel dégagé  
Ciel dégagé  
   Vent: NNE 11.1 km/h
Vent: NNE 11.1 km/h
Température: 22°C
Point de rosée: 18°C
Humidité: 78%
Pression atmosphérique: 1022 hPa
Visibilité: Supérieur à 10 km
Nébulosité: Ciel dégagé
LFLX 191930Z AUTO 03006KT CAVOK 22/18 Q1022 NOSIG

Original script by  Saratoga-weather.org Adapted for the template by  Weerstation Leuven

Matériel utilisé:

Programme Météo
Meteohub

Meteohub